createdAt,value
2023-03-15T06:03:10.560Z,30.75
2023-03-15T06:04:11.572Z,30.75
2023-03-15T06:05:11.525Z,30.75
2023-03-15T06:06:11.554Z,30.75
2023-03-15T06:07:11.588Z,30.75
2023-03-15T06:09:11.655Z,30.76
2023-03-15T06:10:11.639Z,30.81
2023-03-15T06:11:11.649Z,30.79
2023-03-15T06:12:11.738Z,30.78
2023-03-15T06:15:11.881Z,30.79
2023-03-15T06:16:12.043Z,30.81
2023-03-15T06:17:11.955Z,30.85
2023-03-15T06:18:12.003Z,30.84
2023-03-15T06:19:12.103Z,30.89
2023-03-15T06:20:12.076Z,30.78
2023-03-15T06:21:12.121Z,30.79
2023-03-15T06:22:12.144Z,30.84
2023-03-15T06:23:12.192Z,30.81
2023-03-15T06:24:12.202Z,30.78
2023-03-15T06:26:11.288Z,30.83
2023-03-15T06:27:12.304Z,30.84
2023-03-15T06:28:12.375Z,30.79
2023-03-15T06:29:12.384Z,30.78
2023-03-15T06:31:11.473Z,30.79
2023-03-15T06:32:12.494Z,30.79
2023-03-15T06:34:12.537Z,30.76
2023-03-15T06:35:12.597Z,30.82
2023-03-15T06:36:12.613Z,30.76
2023-03-15T06:37:13.541Z,30.79
2023-03-15T06:38:12.648Z,30.80
2023-03-15T06:39:12.634Z,30.79
2023-03-15T06:40:12.637Z,30.79
2023-03-15T06:41:12.619Z,30.79
2023-03-15T06:42:12.610Z,30.78
2023-03-15T06:43:11.605Z,30.73
2023-03-15T06:44:12.600Z,30.78
2023-03-15T06:45:12.599Z,30.83
2023-03-15T06:46:12.630Z,30.76
2023-03-15T06:47:12.589Z,30.74
2023-03-15T06:48:11.575Z,30.72
2023-03-15T06:49:12.575Z,30.69
2023-03-15T06:50:12.558Z,30.72
2023-03-15T06:51:12.578Z,30.74
2023-03-15T06:52:12.576Z,30.73
2023-03-15T06:53:12.547Z,30.67
2023-03-15T06:54:12.558Z,30.72
2023-03-15T06:55:12.578Z,30.67
2023-03-15T06:56:11.579Z,30.70
2023-03-15T06:57:12.536Z,30.72
2023-03-15T06:58:12.539Z,30.67
2023-03-15T06:59:12.511Z,30.66
2023-03-15T07:00:12.519Z,30.63
2023-03-15T07:01:11.533Z,30.61
2023-03-15T07:02:12.522Z,30.67
2023-03-15T07:03:12.493Z,30.66
2023-03-15T07:04:12.547Z,30.67
2023-03-15T07:05:12.488Z,30.66
2023-03-15T07:06:12.506Z,30.55
2023-03-15T07:07:12.503Z,30.52
2023-03-15T07:08:12.474Z,30.61
2023-03-15T07:09:11.514Z,30.52
2023-03-15T07:10:12.457Z,30.50
2023-03-15T07:11:11.511Z,30.50
2023-03-15T07:12:12.449Z,30.52
2023-03-15T07:13:11.448Z,30.46
2023-03-15T07:14:12.424Z,30.52
2023-03-15T07:15:11.409Z,30.49
2023-03-15T07:16:12.462Z,30.41
2023-03-15T07:17:12.404Z,30.53
2023-03-15T07:18:11.410Z,30.52
2023-03-15T07:19:12.405Z,30.52
2023-03-15T07:20:11.380Z,30.52
2023-03-15T07:21:11.391Z,30.58
2023-03-15T07:22:11.415Z,30.55
2023-03-15T07:23:12.475Z,30.52
2023-03-15T07:24:12.473Z,30.51
2023-03-15T07:25:12.507Z,30.62
2023-03-15T07:26:12.541Z,30.62
2023-03-15T07:27:14.877Z,30.63
2023-03-15T07:28:12.578Z,30.65
2023-03-15T07:29:11.558Z,30.66
2023-03-15T07:30:12.535Z,30.66
2023-03-15T07:32:12.566Z,30.73
2023-03-15T07:33:12.573Z,30.71
2023-03-15T07:34:12.520Z,30.77
2023-03-15T07:35:13.540Z,30.69
2023-03-15T07:45:12.447Z,30.92
2023-03-15T07:49:12.405Z,31.00
2023-03-15T07:50:13.196Z,31.00
2023-03-15T07:51:12.411Z,31.05
2023-03-15T07:52:12.402Z,31.07
2023-03-15T07:53:12.380Z,31.05
2023-03-15T07:54:11.710Z,31.03
2023-03-15T07:55:11.405Z,31.09
2023-03-15T07:56:12.388Z,31.11
2023-03-15T07:57:12.366Z,31.16
2023-03-15T07:58:11.365Z,31.11
2023-03-15T07:59:12.757Z,31.23
2023-03-15T08:00:12.367Z,31.20
2023-03-15T08:01:12.352Z,31.28
2023-03-15T08:02:12.401Z,31.29
2023-03-15T08:03:12.400Z,31.20
2023-03-15T08:09:12.331Z,31.44
2023-03-15T08:15:11.244Z,31.62
2023-03-15T08:16:12.276Z,31.45
2023-03-15T08:17:12.240Z,31.50
2023-03-15T08:18:12.227Z,31.69
2023-03-15T08:21:12.221Z,31.67
2023-03-15T08:28:11.186Z,31.83
2023-03-15T08:29:12.157Z,31.95
2023-03-15T08:30:12.168Z,31.93
2023-03-15T08:31:12.185Z,31.89
2023-03-15T08:32:12.133Z,31.90
2023-03-15T08:33:11.140Z,31.92
2023-03-15T08:34:12.247Z,31.83
2023-03-15T08:35:14.282Z,31.83
2023-03-15T08:36:11.173Z,31.92
2023-03-15T08:37:12.119Z,31.87
2023-03-15T08:38:12.106Z,31.86
2023-03-15T08:39:12.100Z,31.83
2023-03-15T08:42:11.076Z,31.93
2023-03-15T08:43:11.109Z,32.24
2023-03-15T08:44:11.069Z,32.11
2023-03-15T08:45:12.066Z,31.99
2023-03-15T08:46:12.079Z,31.93
2023-03-15T08:47:12.059Z,31.63
2023-03-15T08:48:12.045Z,31.71
2023-03-15T08:50:12.251Z,31.35
2023-03-15T08:51:12.023Z,31.66
2023-03-15T08:52:12.007Z,31.35
2023-03-15T08:53:12.009Z,31.06
2023-03-15T08:54:11.988Z,31.35
2023-03-15T08:56:11.995Z,30.85
2023-03-15T08:57:12.003Z,30.53
2023-03-15T08:58:11.975Z,30.74
2023-03-15T08:59:19.225Z,30.52
2023-03-15T09:00:11.969Z,30.30
2023-03-15T09:01:11.950Z,30.32
2023-03-15T09:02:11.010Z,29.97
2023-03-15T09:03:11.957Z,30.07
2023-03-15T09:04:11.988Z,30.14
2023-03-15T09:05:11.949Z,30.06
2023-03-15T09:06:10.941Z,29.91
2023-03-15T09:07:10.916Z,29.81
2023-03-15T09:08:10.892Z,29.11
2023-03-15T09:09:11.895Z,29.99
2023-03-15T09:10:11.905Z,29.70
2023-03-15T09:11:10.888Z,29.61
2023-03-15T09:12:10.898Z,29.60
2023-03-15T09:13:11.873Z,29.55
2023-03-15T09:14:11.870Z,29.38
2023-03-15T09:15:11.973Z,29.62
2023-03-15T09:16:10.855Z,29.40
2023-03-15T09:17:12.273Z,29.17
2023-03-15T09:18:11.841Z,29.44
2023-03-15T09:19:11.837Z,29.34
2023-03-15T09:20:11.819Z,29.17
2023-03-15T09:21:11.815Z,29.21
2023-03-15T09:22:17.127Z,29.11
2023-03-15T09:23:11.810Z,29.19
2023-03-15T09:24:11.806Z,29.24
2023-03-15T09:25:11.795Z,28.91
2023-03-15T09:26:10.786Z,29.02
2023-03-15T09:27:11.792Z,28.52
2023-03-15T09:28:10.807Z,28.61
2023-03-15T09:29:11.771Z,28.93
2023-03-15T09:30:11.777Z,28.75
2023-03-15T09:31:11.835Z,28.79
2023-03-15T09:32:11.745Z,28.87
2023-03-15T09:33:10.769Z,28.76
2023-03-15T09:34:10.734Z,28.69
2023-03-15T09:35:11.744Z,28.69
2023-03-15T09:36:11.730Z,28.55
2023-03-15T09:37:10.718Z,28.60
2023-03-15T09:38:11.713Z,28.49
2023-03-15T09:39:11.705Z,28.42
2023-03-15T09:40:11.703Z,28.22
2023-03-15T09:41:11.706Z,28.22
2023-03-15T09:42:11.687Z,28.36
2023-03-15T09:43:11.696Z,28.27
2023-03-15T09:44:11.689Z,28.09
2023-03-15T09:45:10.764Z,28.16
2023-03-15T09:46:11.727Z,28.05
2023-03-15T09:47:11.676Z,27.98
2023-03-15T09:48:11.663Z,27.92
2023-03-15T09:49:11.643Z,28.03
2023-03-15T09:50:11.653Z,27.78
2023-03-15T09:51:11.625Z,27.82
2023-03-15T09:52:10.613Z,27.72
2023-03-15T09:53:10.629Z,27.67
2023-03-15T09:54:10.596Z,27.69
2023-03-15T09:55:11.622Z,27.58
2023-03-15T09:56:11.592Z,27.55
2023-03-15T09:57:11.607Z,27.63
2023-03-15T09:58:11.644Z,27.43
2023-03-15T09:59:11.577Z,27.28
2023-03-15T10:00:11.567Z,27.22
2023-03-15T10:01:10.619Z,27.10
2023-03-15T10:02:10.556Z,27.20
2023-03-15T10:03:10.578Z,27.16
2023-03-15T10:04:10.532Z,26.76
2023-03-15T10:05:11.527Z,26.70
2023-03-15T10:06:10.534Z,26.67
2023-03-15T10:07:11.526Z,26.85
2023-03-15T10:08:11.534Z,26.72
2023-03-15T10:09:11.508Z,26.73
2023-03-15T10:10:11.501Z,26.60
2023-03-15T10:11:11.484Z,26.66
2023-03-15T10:12:11.523Z,26.61
2023-03-15T10:13:11.486Z,26.45
2023-03-15T10:14:11.485Z,26.49
2023-03-15T10:15:11.494Z,26.38
2023-03-15T10:16:11.563Z,26.70
2023-03-15T10:17:11.441Z,26.32
2023-03-15T10:18:10.519Z,25.66
2023-03-15T10:19:11.527Z,26.96
2023-03-15T10:20:11.561Z,27.00
2023-03-15T10:21:11.618Z,27.37
2023-03-15T10:22:11.607Z,27.49
2023-03-15T10:23:11.641Z,27.64
2023-03-15T10:24:10.662Z,27.87
2023-03-15T10:25:11.706Z,28.09
2023-03-15T10:26:13.211Z,28.20
2023-03-15T10:27:11.691Z,28.17
2023-03-15T10:28:11.679Z,28.22
2023-03-15T10:29:10.684Z,28.14
2023-03-15T10:30:11.687Z,28.52
2023-03-15T10:31:13.845Z,28.37
2023-03-15T10:32:11.675Z,27.92
2023-03-15T10:33:11.661Z,27.85
2023-03-15T10:34:11.723Z,27.97
2023-03-15T10:35:11.674Z,27.73
2023-03-15T10:36:11.850Z,28.12
2023-03-15T10:37:11.602Z,28.07
2023-03-15T10:38:11.596Z,28.19
2023-03-15T10:39:12.302Z,28.37
2023-03-15T10:40:11.613Z,28.61
2023-03-15T10:41:11.591Z,28.28
2023-03-15T10:42:10.773Z,28.46
2023-03-15T10:43:11.794Z,28.32
2023-03-15T10:44:11.817Z,28.03
2023-03-15T10:45:11.840Z,24.39
2023-03-15T10:46:11.967Z,23.71
2023-03-15T10:47:22.662Z,23.91
2023-03-15T10:48:11.898Z,23.48
2023-03-15T10:49:11.894Z,22.46
2023-03-15T10:50:10.892Z,23.26
2023-03-15T10:51:12.642Z,26.46
2023-03-15T10:52:11.874Z,25.97
2023-03-15T10:53:10.874Z,26.31
2023-03-15T10:54:11.883Z,25.58
2023-03-15T10:55:11.885Z,25.57
2023-03-15T10:56:11.906Z,24.86
2023-03-15T10:57:11.845Z,24.91
2023-03-15T10:58:10.847Z,24.92
2023-03-15T10:59:13.006Z,24.28
2023-03-15T11:00:11.827Z,24.55
2023-03-15T11:01:11.813Z,24.33
2023-03-15T11:02:11.821Z,23.96
2023-03-15T11:03:10.894Z,24.20
2023-03-15T11:04:11.891Z,21.52
2023-03-15T11:05:11.887Z,21.85
2023-03-15T11:06:11.899Z,23.14
2023-03-15T11:07:11.933Z,24.10
2023-03-15T11:08:11.896Z,22.72
2023-03-15T11:09:11.901Z,21.26
2023-03-15T11:10:11.891Z,22.18
2023-03-15T11:11:11.910Z,23.26
2023-03-15T11:12:11.923Z,23.62
2023-03-15T11:13:11.919Z,23.50
2023-03-15T11:14:10.923Z,23.33
2023-03-15T11:15:11.925Z,22.66
2023-03-15T11:16:11.978Z,22.94
2023-03-15T11:17:11.916Z,23.12
2023-03-15T11:18:12.101Z,23.07
2023-03-15T11:19:12.002Z,21.20
2023-03-15T11:20:10.925Z,20.37
2023-03-15T11:21:11.949Z,20.83
2023-03-15T11:22:11.961Z,21.93
2023-03-15T11:23:12.018Z,21.76
2023-03-15T11:24:12.022Z,20.70
2023-03-15T11:25:12.033Z,21.78
2023-03-15T11:26:14.095Z,21.25
2023-03-15T11:27:12.070Z,20.99
2023-03-15T11:28:12.057Z,19.62
2023-03-15T11:29:12.052Z,21.63
2023-03-15T11:30:11.035Z,22.01
2023-03-15T11:31:12.070Z,20.99
2023-03-15T11:32:11.026Z,20.93
2023-03-15T11:33:12.025Z,20.60
2023-03-15T11:34:11.037Z,19.85
2023-03-15T11:35:12.077Z,20.27
2023-03-15T11:36:12.390Z,20.62
2023-03-15T11:37:13.242Z,20.62
2023-03-15T11:38:15.254Z,20.50
2023-03-15T11:39:12.260Z,20.69
2023-03-15T11:40:14.076Z,20.06
2023-03-15T11:41:12.201Z,22.79
2023-03-15T11:42:12.192Z,23.08
2023-03-15T11:43:12.182Z,22.47
2023-03-15T11:44:12.166Z,21.30
2023-03-15T11:45:11.159Z,22.26
2023-03-15T11:46:12.359Z,20.65
2023-03-15T11:47:12.151Z,19.93
2023-03-15T11:48:12.130Z,20.31
2023-03-15T11:49:11.140Z,20.95
2023-03-15T11:50:12.142Z,21.78
2023-03-15T11:51:12.142Z,22.07
2023-03-15T11:52:12.106Z,22.06
2023-03-15T11:53:12.101Z,20.10
2023-03-15T11:54:11.091Z,19.78
2023-03-15T11:55:12.124Z,20.81
2023-03-15T11:56:12.088Z,19.69
2023-03-15T11:57:12.074Z,18.94
2023-03-15T11:58:12.089Z,18.97
2023-03-15T11:59:12.065Z,19.38
2023-03-15T12:00:12.136Z,20.34
2023-03-15T12:01:12.048Z,20.36
2023-03-15T12:02:11.350Z,20.76
2023-03-15T12:03:11.045Z,20.58
2023-03-15T12:04:12.788Z,20.72
2023-03-15T12:05:17.850Z,20.79
2023-03-15T12:06:12.029Z,20.64
2023-03-15T12:07:12.008Z,19.23
2023-03-15T12:08:12.013Z,19.58
2023-03-15T12:09:11.993Z,19.05
2023-03-15T12:10:11.983Z,19.53
2023-03-15T12:11:12.020Z,19.78
2023-03-15T12:12:11.974Z,20.19
2023-03-15T12:13:11.989Z,20.45
2023-03-15T12:14:11.974Z,20.45
2023-03-15T12:15:12.009Z,21.40
2023-03-15T12:16:12.111Z,21.44
2023-03-15T12:17:11.959Z,21.24
2023-03-15T12:18:11.942Z,20.42
2023-03-15T12:19:11.933Z,19.54
2023-03-15T12:20:11.921Z,19.40
2023-03-15T12:21:11.926Z,19.30
2023-03-15T12:22:11.923Z,19.22
2023-03-15T12:23:10.894Z,19.44
2023-03-15T12:24:11.897Z,19.26
2023-03-15T12:25:11.884Z,18.93
2023-03-15T12:26:10.901Z,18.94
2023-03-15T12:27:11.976Z,19.43
2023-03-15T12:28:11.884Z,20.04
2023-03-15T12:30:12.099Z,20.59
2023-03-15T12:31:11.942Z,20.98
2023-03-15T12:32:11.851Z,20.82
2023-03-15T12:33:11.827Z,20.21
2023-03-15T12:34:11.828Z,21.09
2023-03-15T12:35:13.361Z,19.20
2023-03-15T12:36:11.903Z,19.43
2023-03-15T12:37:11.807Z,19.69
2023-03-15T12:38:10.809Z,19.70
2023-03-15T12:39:11.785Z,19.59
2023-03-15T12:40:11.780Z,20.15
2023-03-15T12:41:11.781Z,20.76
2023-03-15T12:42:11.772Z,21.27
2023-03-15T12:43:11.799Z,21.46
2023-03-15T12:44:11.760Z,21.40
2023-03-15T12:45:11.792Z,21.24
2023-03-15T12:46:10.815Z,21.52
2023-03-15T12:47:11.732Z,21.59
2023-03-15T12:48:11.726Z,21.47
2023-03-15T12:49:11.732Z,21.59
2023-03-15T12:50:11.719Z,21.54
2023-03-15T12:51:11.722Z,21.56
2023-03-15T12:52:11.728Z,21.63
2023-03-15T12:53:11.701Z,21.68
2023-03-15T12:54:11.687Z,21.64
2023-03-15T12:55:11.678Z,21.56
2023-03-15T12:56:11.704Z,21.69
2023-03-15T12:57:11.690Z,21.69
2023-03-15T12:58:11.657Z,21.68
2023-03-15T12:59:10.695Z,21.69
2023-03-15T13:00:11.647Z,21.76
2023-03-15T13:01:11.743Z,21.81
2023-03-15T13:02:11.757Z,21.76
2023-03-15T13:03:11.867Z,21.85
2023-03-15T13:04:11.867Z,21.78
2023-03-15T13:05:11.924Z,21.88
2023-03-15T13:06:11.341Z,21.91
2023-03-15T13:07:12.031Z,22.08
2023-03-15T13:08:12.079Z,22.33
2023-03-15T13:09:12.132Z,22.31
2023-03-15T13:10:11.336Z,22.29
2023-03-15T13:11:11.236Z,22.39
2023-03-15T13:12:12.270Z,22.41
2023-03-15T13:13:12.348Z,22.48
2023-03-15T13:14:11.356Z,22.48
2023-03-15T13:15:12.411Z,22.47
2023-03-15T13:16:12.495Z,22.52
2023-03-15T13:17:11.457Z,22.55
2023-03-15T13:18:12.488Z,22.54
2023-03-15T13:19:12.512Z,22.60
2023-03-15T13:20:12.600Z,22.70
2023-03-15T13:21:12.622Z,22.70
2023-03-15T13:22:11.621Z,22.67
2023-03-15T13:23:11.660Z,22.77
2023-03-15T13:24:12.702Z,22.73
2023-03-15T13:25:11.735Z,22.83
2023-03-15T13:26:12.774Z,22.77
2023-03-15T13:27:12.822Z,22.87
2023-03-15T13:28:11.860Z,22.85
2023-03-15T13:29:11.964Z,22.84
2023-03-15T13:30:12.925Z,22.89
2023-03-15T13:31:13.060Z,22.94
2023-03-15T13:32:13.019Z,22.94
2023-03-15T13:33:12.029Z,22.99
2023-03-15T13:34:13.086Z,23.02
2023-03-15T13:35:13.111Z,23.00
2023-03-15T13:36:13.117Z,23.04
2023-03-15T13:37:13.143Z,23.09
2023-03-15T13:38:13.178Z,23.14
2023-03-15T13:39:13.216Z,23.14
2023-03-15T13:40:13.277Z,23.17
2023-03-15T13:41:13.274Z,23.21
2023-03-15T13:42:13.314Z,23.24
2023-03-15T13:43:13.328Z,23.22
2023-03-15T13:44:13.349Z,23.29
2023-03-15T13:45:12.406Z,23.31
2023-03-15T13:46:13.428Z,23.36
2023-03-15T13:47:13.466Z,23.43
2023-03-15T13:48:13.504Z,23.46
2023-03-15T13:49:13.607Z,23.45
2023-03-15T13:50:13.533Z,23.49
2023-03-15T13:51:13.553Z,23.52
2023-03-15T13:52:13.571Z,23.54
2023-03-15T13:53:12.596Z,23.53
2023-03-15T13:54:12.649Z,23.56
2023-03-15T13:55:13.660Z,23.59
2023-03-15T13:56:13.695Z,23.65
2023-03-15T13:57:13.719Z,23.59
2023-03-15T13:58:13.724Z,23.60
2023-03-15T13:59:13.756Z,23.63
2023-03-15T14:00:13.775Z,23.67
2023-03-15T14:01:13.790Z,23.71
2023-03-15T14:02:12.886Z,23.74
2023-03-15T14:03:13.943Z,23.74
2023-03-15T14:04:13.868Z,23.77
2023-03-15T14:05:13.898Z,23.76
2023-03-15T14:06:13.938Z,23.79
2023-03-15T14:07:13.964Z,23.84
2023-03-15T14:08:13.977Z,23.84
2023-03-15T14:09:14.005Z,23.86
2023-03-15T14:10:14.039Z,23.88
2023-03-15T14:11:13.069Z,23.91
2023-03-15T14:12:14.091Z,23.99
2023-03-15T14:13:13.132Z,23.96
2023-03-15T14:14:14.141Z,23.99
2023-03-15T14:15:14.166Z,23.93
2023-03-15T14:16:14.274Z,23.98
2023-03-15T14:17:14.304Z,23.97
2023-03-15T14:18:14.253Z,23.95
2023-03-15T14:19:14.313Z,24.07
2023-03-15T14:20:14.307Z,23.96
2023-03-15T14:21:14.339Z,24.00
2023-03-15T14:22:14.357Z,24.06
2023-03-15T14:23:14.380Z,24.06
2023-03-15T14:24:14.397Z,24.07
2023-03-15T14:25:13.414Z,24.07
2023-03-15T14:26:13.441Z,24.12
2023-03-15T14:27:14.472Z,24.19
2023-03-15T14:28:13.506Z,24.13
2023-03-15T14:29:14.518Z,24.22
2023-03-15T14:30:14.549Z,24.22
2023-03-15T14:31:14.595Z,24.24
2023-03-15T14:32:13.590Z,24.19
2023-03-15T14:33:14.611Z,24.15
2023-03-15T14:34:14.639Z,24.23
2023-03-15T14:35:13.697Z,24.26
2023-03-15T14:36:13.707Z,24.22
2023-03-15T14:37:14.732Z,24.23
2023-03-15T14:38:14.751Z,24.33
2023-03-15T14:39:14.790Z,24.26
2023-03-15T14:40:15.366Z,24.33
2023-03-15T14:41:14.820Z,24.27
2023-03-15T14:42:13.843Z,24.30
2023-03-15T14:43:14.865Z,24.32
2023-03-15T14:44:13.922Z,24.32
2023-03-15T14:45:14.920Z,24.38
2023-03-15T14:46:14.980Z,24.41
2023-03-15T14:47:14.965Z,24.33
2023-03-15T14:48:14.992Z,24.41
2023-03-15T14:49:15.002Z,24.38
2023-03-15T14:50:15.091Z,24.38
2023-03-15T14:51:15.083Z,24.36
2023-03-15T14:52:15.087Z,24.36
2023-03-15T14:53:15.105Z,24.39
2023-03-15T14:54:15.142Z,24.41
2023-03-15T14:55:14.179Z,24.41
2023-03-15T14:56:15.206Z,24.47
2023-03-15T14:57:15.886Z,24.44
2023-03-15T14:58:15.233Z,24.44
2023-03-15T14:59:14.257Z,24.44
2023-03-15T15:00:15.290Z,24.47
2023-03-15T15:01:14.445Z,24.45
2023-03-15T15:02:15.425Z,24.42
2023-03-15T15:03:15.364Z,24.49
2023-03-15T15:04:15.410Z,24.48
2023-03-15T15:05:14.430Z,24.46
2023-03-15T15:06:15.449Z,24.47
2023-03-15T15:07:15.521Z,24.50
2023-03-15T15:08:15.525Z,24.51
2023-03-15T15:09:15.760Z,24.51
2023-03-15T15:10:15.552Z,24.59
2023-03-15T15:11:15.607Z,24.54
2023-03-15T15:12:15.620Z,24.54
2023-03-15T15:13:15.644Z,24.54
2023-03-15T15:14:15.679Z,24.61
2023-03-15T15:15:15.712Z,24.58
2023-03-15T15:16:15.750Z,24.56
2023-03-15T15:17:15.766Z,24.62
2023-03-15T15:18:15.785Z,24.64
2023-03-15T15:19:15.813Z,24.61
2023-03-15T15:20:15.842Z,24.59
2023-03-15T15:21:15.886Z,24.59
2023-03-15T15:22:15.902Z,24.58
2023-03-15T15:23:14.937Z,24.64
2023-03-15T15:24:15.942Z,24.62
2023-03-15T15:25:15.958Z,24.67
2023-03-15T15:26:15.001Z,24.64
2023-03-15T15:27:16.037Z,24.70
2023-03-15T15:28:32.803Z,24.68
2023-03-15T15:29:16.094Z,24.67
2023-03-15T15:30:16.368Z,24.67
2023-03-15T15:31:16.153Z,24.78
2023-03-15T15:32:16.027Z,24.68
2023-03-15T15:33:16.080Z,24.75
2023-03-15T15:34:16.026Z,24.75
2023-03-15T15:35:16.008Z,24.71
2023-03-15T15:36:16.006Z,24.71
2023-03-15T15:37:15.990Z,24.78
2023-03-15T15:38:15.985Z,24.72
2023-03-15T15:39:16.027Z,24.76
2023-03-15T15:40:15.987Z,24.72
2023-03-15T15:41:15.980Z,24.76
2023-03-15T15:42:15.969Z,24.78
2023-03-15T15:43:15.957Z,24.76
2023-03-15T15:44:15.957Z,24.82
2023-03-15T15:45:15.942Z,24.84
2023-03-15T15:46:16.041Z,24.78
2023-03-15T15:47:14.925Z,24.81
2023-03-15T15:48:15.913Z,24.81
2023-03-15T15:49:15.907Z,24.84
2023-03-15T15:50:15.921Z,24.84
2023-03-15T15:51:14.901Z,24.84
2023-03-15T15:52:15.894Z,24.81
2023-03-15T15:53:15.882Z,24.84
2023-03-15T15:54:15.893Z,24.88
2023-03-15T15:55:15.891Z,24.87
2023-03-15T15:56:15.912Z,24.91
2023-03-15T15:57:15.925Z,24.88
2023-03-15T15:58:15.946Z,24.93
2023-03-15T15:59:15.981Z,24.91
2023-03-15T16:00:16.012Z,24.94
2023-03-15T16:01:16.109Z,24.93
2023-03-15T16:02:15.330Z,24.95
2023-03-15T16:03:16.160Z,24.96
2023-03-15T16:04:16.135Z,24.96
2023-03-15T16:05:16.187Z,24.96
2023-03-15T16:06:15.198Z,24.96
2023-03-15T16:07:16.255Z,24.98
2023-03-15T16:08:16.259Z,25.05
2023-03-15T16:09:16.357Z,25.00
2023-03-15T16:10:15.332Z,24.98
2023-03-15T16:11:16.368Z,25.02
2023-03-15T16:12:16.402Z,25.00
2023-03-15T16:13:16.440Z,24.97
2023-03-15T16:14:16.448Z,25.06
2023-03-15T16:15:16.486Z,25.06
2023-03-15T16:16:16.602Z,25.06
2023-03-15T16:17:15.565Z,25.08
2023-03-15T16:18:15.612Z,25.12
2023-03-15T16:19:16.690Z,25.04
2023-03-15T16:20:16.691Z,25.09
2023-03-15T16:21:16.731Z,25.14
2023-03-15T16:22:16.771Z,25.12
2023-03-15T16:23:16.809Z,25.19
2023-03-15T16:24:16.834Z,25.18
2023-03-15T16:25:16.874Z,25.21
2023-03-15T16:26:16.934Z,25.22
2023-03-15T16:27:16.992Z,25.28
2023-03-15T16:28:17.012Z,25.25
2023-03-15T16:29:17.053Z,25.28
